Largo, MD (20792)

10:16 PM EDT on August 27, 2016 (GMT -0400)
Boones Estates | | Change Station

Elev 118 ft 38.81 °N, 76.68 °W | Updated 36 seconds ago

Clear
Clear
72.5 °F
Feels Like 72.5 °F
N
0.0
Wind Variable Wind from NNE
Gusts 0.0 mph

Today
High -- | Low -- °F
--% Chance of Precip.
Yesterday
High -- | Low -- °F
Precip. -- in
Pressure 30.21 in
Visibility 10.0 miles
Clouds Clear
Dew Point 70 °F
Humidity 93%
Rainfall 0.00 in
Snow Depth Not available.
6:31 AM 7:44 PM
Waning Crescent, 19% visible
METAR KADW 280158Z AUTO 09001KT 10SM CLR 24/20 A3019 RMK AO2 SLP228 T02380195
Pressure 30.21 in
Visibility 10.0 miles
Clouds Clear
Dew Point 70 °F
Humidity 93%
Rainfall 0.00 in
Snow Depth Not available.
6:31 AM 7:44 PM
Waning Crescent, 19% visible
METAR KADW 280158Z AUTO 09001KT 10SM CLR 24/20 A3019 RMK AO2 SLP228 T02380195

10-Day Weather Forecast

Almanac

Astronomy

Aug. 27, 2016 Rise Set
Actual Time
Civil Twilight
Nautical Twilight
Astronomical Twilight
Moon
Length of Visible Light
Length of Day
Tomorrow will be .
, % of the Moon is Illuminated

Today's Extremes

State Highs State Lows

Community

WunderPhotos

Upload Photos

1,935,493 photos uploaded!

WunderBlog® & News

Nearby

Air Quality

  Air Quality AQ Index Pollutant
Not available.

Snow Depth

Station Depth Elevation

Earthquake Activity

City Distance Mag. Time & Date
Minimum magnitude displayed is 2.5.

Coastal Water Temperatures

Place Temperature

Stations

Nearby Weather Stations

Station Location Temp. Windchill Dew Point Humidity Wind Precip. Elev Updated Type
                   

Watches & Warnings

There are currently no watches in effect.